sensor_id;sensor_type;location;lat;lon;timestamp;temperature;humidity
12655;DHT22;6392;44.644;11.448;2023-09-08T00:00:21;21.80;99.90
12655;DHT22;6392;44.644;11.448;2023-09-08T00:02:48;21.70;99.90
12655;DHT22;6392;44.644;11.448;2023-09-08T00:05:15;21.70;99.90
12655;DHT22;6392;44.644;11.448;2023-09-08T00:07:42;21.60;99.90
12655;DHT22;6392;44.644;11.448;2023-09-08T00:10:09;21.60;99.90
12655;DHT22;6392;44.644;11.448;2023-09-08T00:12:39;21.50;99.90
12655;DHT22;6392;44.644;11.448;2023-09-08T00:15:07;21.50;99.90
12655;DHT22;6392;44.644;11.448;2023-09-08T00:17:34;21.50;99.90
12655;DHT22;6392;44.644;11.448;2023-09-08T00:20:02;21.40;99.90
12655;DHT22;6392;44.644;11.448;2023-09-08T00:22:34;21.50;99.90
12655;DHT22;6392;44.644;11.448;2023-09-08T00:25:01;21.50;99.90
12655;DHT22;6392;44.644;11.448;2023-09-08T00:27:28;21.50;99.90
12655;DHT22;6392;44.644;11.448;2023-09-08T00:29:56;21.50;99.90
12655;DHT22;6392;44.644;11.448;2023-09-08T00:32:23;21.50;99.90
12655;DHT22;6392;44.644;11.448;2023-09-08T00:34:50;21.40;99.90
12655;DHT22;6392;44.644;11.448;2023-09-08T00:37:17;21.40;99.90
12655;DHT22;6392;44.644;11.448;2023-09-08T00:39:44;21.40;99.90
12655;DHT22;6392;44.644;11.448;2023-09-08T00:42:11;21.40;99.90
12655;DHT22;6392;44.644;11.448;2023-09-08T00:44:38;21.30;99.90
12655;DHT22;6392;44.644;11.448;2023-09-08T00:47:06;21.30;99.90
12655;DHT22;6392;44.644;11.448;2023-09-08T00:49:33;21.20;99.90
12655;DHT22;6392;44.644;11.448;2023-09-08T00:52:01;21.10;99.90
12655;DHT22;6392;44.644;11.448;2023-09-08T00:54:27;21.00;99.90
12655;DHT22;6392;44.644;11.448;2023-09-08T00:56:56;20.90;99.90
12655;DHT22;6392;44.644;11.448;2023-09-08T00:59:24;20.90;99.90
12655;DHT22;6392;44.644;11.448;2023-09-08T01:01:52;20.90;99.90
12655;DHT22;6392;44.644;11.448;2023-09-08T01:04:20;20.90;99.90
12655;DHT22;6392;44.644;11.448;2023-09-08T01:06:47;20.90;99.90
12655;DHT22;6392;44.644;11.448;2023-09-08T01:09:15;20.80;99.90
12655;DHT22;6392;44.644;11.448;2023-09-08T01:11:42;20.80;99.90
12655;DHT22;6392;44.644;11.448;2023-09-08T01:14:11;20.70;99.90
12655;DHT22;6392;44.644;11.448;2023-09-08T01:16:39;20.70;99.90
12655;DHT22;6392;44.644;11.448;2023-09-08T01:19:11;20.60;99.90
12655;DHT22;6392;44.644;11.448;2023-09-08T01:22:11;20.60;99.90
12655;DHT22;6392;44.644;11.448;2023-09-08T01:25:06;20.60;99.90
12655;DHT22;6392;44.644;11.448;2023-09-08T01:27:35;20.60;99.90
12655;DHT22;6392;44.644;11.448;2023-09-08T01:30:02;20.60;99.90
12655;DHT22;6392;44.644;11.448;2023-09-08T01:32:30;20.50;99.90
12655;DHT22;6392;44.644;11.448;2023-09-08T01:34:59;20.50;99.90
12655;DHT22;6392;44.644;11.448;2023-09-08T01:37:26;20.40;99.90
12655;DHT22;6392;44.644;11.448;2023-09-08T01:39:53;20.40;99.90
12655;DHT22;6392;44.644;11.448;2023-09-08T01:42:22;20.40;99.90
12655;DHT22;6392;44.644;11.448;2023-09-08T01:44:49;20.40;99.90
12655;DHT22;6392;44.644;11.448;2023-09-08T01:47:16;20.40;99.90
12655;DHT22;6392;44.644;11.448;2023-09-08T01:49:43;20.40;99.90
12655;DHT22;6392;44.644;11.448;2023-09-08T01:52:10;20.40;99.90
12655;DHT22;6392;44.644;11.448;2023-09-08T01:54:37;20.30;99.90
12655;DHT22;6392;44.644;11.448;2023-09-08T01:57:04;20.30;99.90
12655;DHT22;6392;44.644;11.448;2023-09-08T01:59:33;20.20;99.90
12655;DHT22;6392;44.644;11.448;2023-09-08T02:02:00;20.30;99.90
12655;DHT22;6392;44.644;11.448;2023-09-08T02:04:27;20.30;99.90
12655;DHT22;6392;44.644;11.448;2023-09-08T02:06:54;20.30;99.90
12655;DHT22;6392;44.644;11.448;2023-09-08T02:09:21;20.20;99.90
12655;DHT22;6392;44.644;11.448;2023-09-08T02:11:48;20.20;99.90
12655;DHT22;6392;44.644;11.448;2023-09-08T02:14:15;20.10;99.90
12655;DHT22;6392;44.644;11.448;2023-09-08T02:16:44;20.10;99.90
12655;DHT22;6392;44.644;11.448;2023-09-08T02:19:11;20.20;99.90
12655;DHT22;6392;44.644;11.448;2023-09-08T02:21:38;20.20;99.90
12655;DHT22;6392;44.644;11.448;2023-09-08T02:24:05;20.20;99.90
12655;DHT22;6392;44.644;11.448;2023-09-08T02:26:32;20.10;99.90
12655;DHT22;6392;44.644;11.448;2023-09-08T02:29:00;20.10;99.90
12655;DHT22;6392;44.644;11.448;2023-09-08T02:31:27;20.00;99.90
12655;DHT22;6392;44.644;11.448;2023-09-08T02:33:56;20.00;99.90
12655;DHT22;6392;44.644;11.448;2023-09-08T02:36:23;20.10;99.90
12655;DHT22;6392;44.644;11.448;2023-09-08T02:38:51;20.00;99.90
12655;DHT22;6392;44.644;11.448;2023-09-08T02:41:19;20.00;99.90
12655;DHT22;6392;44.644;11.448;2023-09-08T02:43:46;20.00;99.90
12655;DHT22;6392;44.644;11.448;2023-09-08T02:46:13;20.00;99.90
12655;DHT22;6392;44.644;11.448;2023-09-08T02:48:40;20.00;99.90
12655;DHT22;6392;44.644;11.448;2023-09-08T02:51:08;20.00;99.90
12655;DHT22;6392;44.644;11.448;2023-09-08T02:53:35;20.00;99.90
12655;DHT22;6392;44.644;11.448;2023-09-08T02:56:03;20.00;99.90
12655;DHT22;6392;44.644;11.448;2023-09-08T02:58:31;20.00;99.90
12655;DHT22;6392;44.644;11.448;2023-09-08T03:01:09;20.00;99.90
12655;DHT22;6392;44.644;11.448;2023-09-08T03:03:36;20.10;99.90
12655;DHT22;6392;44.644;11.448;2023-09-08T03:06:03;20.00;99.90
12655;DHT22;6392;44.644;11.448;2023-09-08T03:08:32;20.00;99.90
12655;DHT22;6392;44.644;11.448;2023-09-08T03:10:59;20.10;99.90
12655;DHT22;6392;44.644;11.448;2023-09-08T03:13:26;20.00;99.90
12655;DHT22;6392;44.644;11.448;2023-09-08T03:15:54;20.00;99.90
12655;DHT22;6392;44.644;11.448;2023-09-08T03:18:22;19.90;99.90
12655;DHT22;6392;44.644;11.448;2023-09-08T03:20:49;19.90;99.90
12655;DHT22;6392;44.644;11.448;2023-09-08T03:23:16;19.90;99.90
12655;DHT22;6392;44.644;11.448;2023-09-08T03:25:45;19.90;99.90
12655;DHT22;6392;44.644;11.448;2023-09-08T03:28:12;19.90;99.90
12655;DHT22;6392;44.644;11.448;2023-09-08T03:30:39;19.90;99.90
12655;DHT22;6392;44.644;11.448;2023-09-08T03:33:06;19.90;99.90
12655;DHT22;6392;44.644;11.448;2023-09-08T03:35:33;19.80;99.90
12655;DHT22;6392;44.644;11.448;2023-09-08T03:38:00;19.80;99.90
12655;DHT22;6392;44.644;11.448;2023-09-08T03:40:26;19.80;99.90
12655;DHT22;6392;44.644;11.448;2023-09-08T03:42:55;19.80;99.90
12655;DHT22;6392;44.644;11.448;2023-09-08T03:45:22;19.70;99.90
12655;DHT22;6392;44.644;11.448;2023-09-08T03:47:49;19.70;99.90
12655;DHT22;6392;44.644;11.448;2023-09-08T03:50:16;19.70;99.90
12655;DHT22;6392;44.644;11.448;2023-09-08T03:52:43;19.60;99.90
12655;DHT22;6392;44.644;11.448;2023-09-08T03:55:10;19.60;99.90
12655;DHT22;6392;44.644;11.448;2023-09-08T03:57:37;19.60;99.90
12655;DHT22;6392;44.644;11.448;2023-09-08T04:00:07;19.50;99.90
12655;DHT22;6392;44.644;11.448;2023-09-08T04:02:36;19.50;99.90
12655;DHT22;6392;44.644;11.448;2023-09-08T04:05:03;19.50;99.90
12655;DHT22;6392;44.644;11.448;2023-09-08T04:07:30;19.50;99.90
12655;DHT22;6392;44.644;11.448;2023-09-08T04:09:57;19.50;99.90
12655;DHT22;6392;44.644;11.448;2023-09-08T04:12:24;19.40;99.90
12655;DHT22;6392;44.644;11.448;2023-09-08T04:14:51;19.40;99.90
12655;DHT22;6392;44.644;11.448;2023-09-08T04:17:20;19.40;99.90
12655;DHT22;6392;44.644;11.448;2023-09-08T04:19:47;19.40;99.90
12655;DHT22;6392;44.644;11.448;2023-09-08T04:22:14;19.30;99.90
12655;DHT22;6392;44.644;11.448;2023-09-08T04:24:41;19.40;99.90
12655;DHT22;6392;44.644;11.448;2023-09-08T04:27:08;19.40;99.90
12655;DHT22;6392;44.644;11.448;2023-09-08T04:29:36;19.40;99.90
12655;DHT22;6392;44.644;11.448;2023-09-08T04:32:03;19.40;99.90
12655;DHT22;6392;44.644;11.448;2023-09-08T04:34:37;19.50;99.90
12655;DHT22;6392;44.644;11.448;2023-09-08T04:37:04;19.50;99.90
12655;DHT22;6392;44.644;11.448;2023-09-08T04:39:32;19.40;99.90
12655;DHT22;6392;44.644;11.448;2023-09-08T04:41:59;19.40;99.90
12655;DHT22;6392;44.644;11.448;2023-09-08T04:44:26;19.50;99.90
12655;DHT22;6392;44.644;11.448;2023-09-08T04:46:54;19.50;99.90
12655;DHT22;6392;44.644;11.448;2023-09-08T04:49:21;19.50;99.90
12655;DHT22;6392;44.644;11.448;2023-09-08T04:51:49;19.60;99.90
12655;DHT22;6392;44.644;11.448;2023-09-08T04:54:16;19.60;99.90
12655;DHT22;6392;44.644;11.448;2023-09-08T04:56:45;19.50;99.90
12655;DHT22;6392;44.644;11.448;2023-09-08T04:59:12;19.50;99.90
12655;DHT22;6392;44.644;11.448;2023-09-08T05:01:39;19.40;99.90
12655;DHT22;6392;44.644;11.448;2023-09-08T05:04:06;19.40;99.90
12655;DHT22;6392;44.644;11.448;2023-09-08T05:06:33;19.30;99.90
12655;DHT22;6392;44.644;11.448;2023-09-08T05:09:01;19.30;99.90
12655;DHT22;6392;44.644;11.448;2023-09-08T05:11:28;19.30;99.90
12655;DHT22;6392;44.644;11.448;2023-09-08T05:13:55;19.30;99.90
12655;DHT22;6392;44.644;11.448;2023-09-08T05:16:23;19.30;99.90
12655;DHT22;6392;44.644;11.448;2023-09-08T05:19:02;19.30;99.90
12655;DHT22;6392;44.644;11.448;2023-09-08T05:21:30;19.30;99.90
12655;DHT22;6392;44.644;11.448;2023-09-08T05:23:57;19.20;99.90
12655;DHT22;6392;44.644;11.448;2023-09-08T05:26:26;19.20;99.90
12655;DHT22;6392;44.644;11.448;2023-09-08T05:28:53;19.20;99.90
12655;DHT22;6392;44.644;11.448;2023-09-08T05:31:20;19.20;99.90
12655;DHT22;6392;44.644;11.448;2023-09-08T05:33:47;19.20;99.90
12655;DHT22;6392;44.644;11.448;2023-09-08T05:36:14;19.30;99.90
12655;DHT22;6392;44.644;11.448;2023-09-08T05:38:41;19.20;99.90
12655;DHT22;6392;44.644;11.448;2023-09-08T05:41:08;19.20;99.90
12655;DHT22;6392;44.644;11.448;2023-09-08T05:43:36;19.30;99.90
12655;DHT22;6392;44.644;11.448;2023-09-08T05:46:03;19.30;99.90
12655;DHT22;6392;44.644;11.448;2023-09-08T05:48:30;19.30;99.90
12655;DHT22;6392;44.644;11.448;2023-09-08T05:50:57;19.40;99.90
12655;DHT22;6392;44.644;11.448;2023-09-08T05:53:25;19.40;99.90
12655;DHT22;6392;44.644;11.448;2023-09-08T05:55:52;19.40;99.90
12655;DHT22;6392;44.644;11.448;2023-09-08T05:58:19;19.50;99.90
12655;DHT22;6392;44.644;11.448;2023-09-08T06:00:47;19.50;99.90
12655;DHT22;6392;44.644;11.448;2023-09-08T06:03:14;19.50;99.90
12655;DHT22;6392;44.644;11.448;2023-09-08T06:05:41;19.60;99.90
12655;DHT22;6392;44.644;11.448;2023-09-08T06:08:08;19.60;99.90
12655;DHT22;6392;44.644;11.448;2023-09-08T06:10:35;19.60;99.90
12655;DHT22;6392;44.644;11.448;2023-09-08T06:13:02;19.60;99.90
12655;DHT22;6392;44.644;11.448;2023-09-08T06:15:29;19.70;99.90
12655;DHT22;6392;44.644;11.448;2023-09-08T06:17:57;19.80;99.90
12655;DHT22;6392;44.644;11.448;2023-09-08T06:20:24;19.80;99.90
12655;DHT22;6392;44.644;11.448;2023-09-08T06:22:52;19.80;99.90
12655;DHT22;6392;44.644;11.448;2023-09-08T06:25:19;19.80;99.90
12655;DHT22;6392;44.644;11.448;2023-09-08T06:27:46;19.90;99.90
12655;DHT22;6392;44.644;11.448;2023-09-08T06:30:13;19.90;99.90
12655;DHT22;6392;44.644;11.448;2023-09-08T06:32:41;20.00;99.90
12655;DHT22;6392;44.644;11.448;2023-09-08T06:35:10;20.00;99.90
12655;DHT22;6392;44.644;11.448;2023-09-08T06:37:37;20.10;99.90
12655;DHT22;6392;44.644;11.448;2023-09-08T06:40:06;20.10;99.90
12655;DHT22;6392;44.644;11.448;2023-09-08T06:42:33;20.20;99.90
12655;DHT22;6392;44.644;11.448;2023-09-08T06:45:00;20.30;99.90
12655;DHT22;6392;44.644;11.448;2023-09-08T06:47:27;20.40;99.90
12655;DHT22;6392;44.644;11.448;2023-09-08T06:49:54;20.50;99.90
12655;DHT22;6392;44.644;11.448;2023-09-08T06:52:22;20.50;99.90
12655;DHT22;6392;44.644;11.448;2023-09-08T06:54:50;20.60;99.90
12655;DHT22;6392;44.644;11.448;2023-09-08T06:57:18;20.70;99.90
12655;DHT22;6392;44.644;11.448;2023-09-08T06:59:46;20.80;99.90
12655;DHT22;6392;44.644;11.448;2023-09-08T07:02:13;20.90;99.90
12655;DHT22;6392;44.644;11.448;2023-09-08T07:04:40;21.00;99.90
12655;DHT22;6392;44.644;11.448;2023-09-08T07:07:07;21.10;99.90
12655;DHT22;6392;44.644;11.448;2023-09-08T07:09:37;21.10;99.90
12655;DHT22;6392;44.644;11.448;2023-09-08T07:12:05;21.10;99.90
12655;DHT22;6392;44.644;11.448;2023-09-08T07:14:32;21.20;99.90
12655;DHT22;6392;44.644;11.448;2023-09-08T07:16:59;21.30;99.90
12655;DHT22;6392;44.644;11.448;2023-09-08T07:19:27;21.30;99.90
12655;DHT22;6392;44.644;11.448;2023-09-08T07:21:54;21.40;99.90
12655;DHT22;6392;44.644;11.448;2023-09-08T07:24:21;21.40;99.90
12655;DHT22;6392;44.644;11.448;2023-09-08T07:26:49;21.50;99.90
12655;DHT22;6392;44.644;11.448;2023-09-08T07:29:16;21.50;99.90
12655;DHT22;6392;44.644;11.448;2023-09-08T07:31:44;21.60;99.90
12655;DHT22;6392;44.644;11.448;2023-09-08T07:34:11;21.60;99.90
12655;DHT22;6392;44.644;11.448;2023-09-08T07:36:38;21.60;99.90
12655;DHT22;6392;44.644;11.448;2023-09-08T07:39:05;21.70;99.90
12655;DHT22;6392;44.644;11.448;2023-09-08T07:41:32;21.80;99.90
12655;DHT22;6392;44.644;11.448;2023-09-08T07:44:01;21.90;99.90
12655;DHT22;6392;44.644;11.448;2023-09-08T07:46:31;21.90;99.90
12655;DHT22;6392;44.644;11.448;2023-09-08T07:48:58;22.10;99.90
12655;DHT22;6392;44.644;11.448;2023-09-08T07:51:25;22.20;99.90
12655;DHT22;6392;44.644;11.448;2023-09-08T07:53:53;22.20;99.90
12655;DHT22;6392;44.644;11.448;2023-09-08T07:56:21;22.30;99.90
12655;DHT22;6392;44.644;11.448;2023-09-08T07:58:48;22.30;99.90
12655;DHT22;6392;44.644;11.448;2023-09-08T08:01:17;22.40;99.90
12655;DHT22;6392;44.644;11.448;2023-09-08T08:03:44;22.50;99.90
12655;DHT22;6392;44.644;11.448;2023-09-08T08:06:11;22.60;99.90
12655;DHT22;6392;44.644;11.448;2023-09-08T08:08:37;22.60;99.90
12655;DHT22;6392;44.644;11.448;2023-09-08T08:11:09;22.70;99.90
12655;DHT22;6392;44.644;11.448;2023-09-08T08:13:36;22.80;99.90
12655;DHT22;6392;44.644;11.448;2023-09-08T08:16:09;22.80;99.90
12655;DHT22;6392;44.644;11.448;2023-09-08T08:18:37;22.90;99.90
12655;DHT22;6392;44.644;11.448;2023-09-08T08:21:04;23.00;99.90
12655;DHT22;6392;44.644;11.448;2023-09-08T08:23:31;23.00;99.90
12655;DHT22;6392;44.644;11.448;2023-09-08T08:25:59;23.10;99.90
12655;DHT22;6392;44.644;11.448;2023-09-08T08:28:26;23.10;99.90
12655;DHT22;6392;44.644;11.448;2023-09-08T08:30:53;23.20;99.90
12655;DHT22;6392;44.644;11.448;2023-09-08T08:33:21;23.20;99.90
12655;DHT22;6392;44.644;11.448;2023-09-08T08:35:53;23.30;99.90
12655;DHT22;6392;44.644;11.448;2023-09-08T08:38:20;23.30;99.90
12655;DHT22;6392;44.644;11.448;2023-09-08T08:40:48;23.30;99.90
12655;DHT22;6392;44.644;11.448;2023-09-08T08:43:15;23.30;99.90
12655;DHT22;6392;44.644;11.448;2023-09-08T08:45:44;23.40;99.90
12655;DHT22;6392;44.644;11.448;2023-09-08T08:48:22;23.40;99.90
12655;DHT22;6392;44.644;11.448;2023-09-08T08:51:02;23.40;99.90
12655;DHT22;6392;44.644;11.448;2023-09-08T08:53:35;23.50;99.90
12655;DHT22;6392;44.644;11.448;2023-09-08T08:56:06;23.50;99.90
12655;DHT22;6392;44.644;11.448;2023-09-08T08:58:36;23.50;99.90
12655;DHT22;6392;44.644;11.448;2023-09-08T09:01:04;23.50;99.90
12655;DHT22;6392;44.644;11.448;2023-09-08T09:03:46;23.60;99.90
12655;DHT22;6392;44.644;11.448;2023-09-08T09:06:17;23.60;99.90
12655;DHT22;6392;44.644;11.448;2023-09-08T09:08:46;23.70;99.90
12655;DHT22;6392;44.644;11.448;2023-09-08T09:11:15;23.80;99.90
12655;DHT22;6392;44.644;11.448;2023-09-08T09:13:42;23.90;99.90
12655;DHT22;6392;44.644;11.448;2023-09-08T09:16:10;23.90;99.90
12655;DHT22;6392;44.644;11.448;2023-09-08T09:18:53;23.90;99.90
12655;DHT22;6392;44.644;11.448;2023-09-08T09:21:22;23.90;99.90
12655;DHT22;6392;44.644;11.448;2023-09-08T09:23:50;24.00;99.90
12655;DHT22;6392;44.644;11.448;2023-09-08T09:26:25;24.00;99.90
12655;DHT22;6392;44.644;11.448;2023-09-08T09:28:52;23.90;99.90
12655;DHT22;6392;44.644;11.448;2023-09-08T09:31:23;24.00;99.90
12655;DHT22;6392;44.644;11.448;2023-09-08T09:34:01;24.00;99.90
12655;DHT22;6392;44.644;11.448;2023-09-08T09:36:31;24.00;99.90
12655;DHT22;6392;44.644;11.448;2023-09-08T09:38:59;24.00;99.90
12655;DHT22;6392;44.644;11.448;2023-09-08T09:41:29;24.10;99.90
12655;DHT22;6392;44.644;11.448;2023-09-08T09:43:57;24.10;99.90
12655;DHT22;6392;44.644;11.448;2023-09-08T09:46:24;24.20;99.90
12655;DHT22;6392;44.644;11.448;2023-09-08T09:48:58;24.20;99.90
12655;DHT22;6392;44.644;11.448;2023-09-08T09:51:41;24.30;99.90
12655;DHT22;6392;44.644;11.448;2023-09-08T09:54:11;24.30;99.90
12655;DHT22;6392;44.644;11.448;2023-09-08T09:56:40;24.30;99.90
12655;DHT22;6392;44.644;11.448;2023-09-08T09:59:11;24.50;99.90
12655;DHT22;6392;44.644;11.448;2023-09-08T10:01:50;24.50;99.90
12655;DHT22;6392;44.644;11.448;2023-09-08T10:04:19;24.50;99.90
12655;DHT22;6392;44.644;11.448;2023-09-08T10:06:50;24.50;99.90
12655;DHT22;6392;44.644;11.448;2023-09-08T10:09:21;24.40;99.90
12655;DHT22;6392;44.644;11.448;2023-09-08T10:11:51;24.50;99.90
12655;DHT22;6392;44.644;11.448;2023-09-08T10:14:24;24.40;99.90
12655;DHT22;6392;44.644;11.448;2023-09-08T10:16:58;24.50;99.90
12655;DHT22;6392;44.644;11.448;2023-09-08T10:19:28;24.50;99.90
12655;DHT22;6392;44.644;11.448;2023-09-08T10:22:12;24.50;99.90
12655;DHT22;6392;44.644;11.448;2023-09-08T10:24:54;24.50;99.90
12655;DHT22;6392;44.644;11.448;2023-09-08T10:27:25;24.50;99.90
12655;DHT22;6392;44.644;11.448;2023-09-08T10:29:56;24.60;99.90
12655;DHT22;6392;44.644;11.448;2023-09-08T10:32:31;24.80;99.90
12655;DHT22;6392;44.644;11.448;2023-09-08T10:35:04;24.70;99.90
12655;DHT22;6392;44.644;11.448;2023-09-08T10:37:38;24.70;99.90
12655;DHT22;6392;44.644;11.448;2023-09-08T10:40:24;24.70;99.90
12655;DHT22;6392;44.644;11.448;2023-09-08T10:43:09;24.80;99.90
12655;DHT22;6392;44.644;11.448;2023-09-08T10:45:41;24.80;99.90
12655;DHT22;6392;44.644;11.448;2023-09-08T10:48:09;24.80;99.90
12655;DHT22;6392;44.644;11.448;2023-09-08T10:50:40;24.70;99.90
12655;DHT22;6392;44.644;11.448;2023-09-08T10:53:13;24.70;99.90
12655;DHT22;6392;44.644;11.448;2023-09-08T10:55:43;24.80;99.90
12655;DHT22;6392;44.644;11.448;2023-09-08T10:58:20;24.80;99.90
12655;DHT22;6392;44.644;11.448;2023-09-08T11:00:56;24.90;99.90
12655;DHT22;6392;44.644;11.448;2023-09-08T11:03:43;25.00;99.90
12655;DHT22;6392;44.644;11.448;2023-09-08T11:06:12;25.00;99.90
12655;DHT22;6392;44.644;11.448;2023-09-08T11:08:43;25.00;99.90
12655;DHT22;6392;44.644;11.448;2023-09-08T11:11:11;24.90;99.90
12655;DHT22;6392;44.644;11.448;2023-09-08T11:13:41;24.90;99.90
12655;DHT22;6392;44.644;11.448;2023-09-08T11:16:11;25.00;99.90
12655;DHT22;6392;44.644;11.448;2023-09-08T11:18:40;25.00;99.90
12655;DHT22;6392;44.644;11.448;2023-09-08T11:21:12;25.00;99.90
12655;DHT22;6392;44.644;11.448;2023-09-08T11:23:44;25.10;99.90
12655;DHT22;6392;44.644;11.448;2023-09-08T11:26:12;25.20;99.90
12655;DHT22;6392;44.644;11.448;2023-09-08T11:28:42;25.30;99.90
12655;DHT22;6392;44.644;11.448;2023-09-08T11:31:14;25.30;99.90
12655;DHT22;6392;44.644;11.448;2023-09-08T11:33:43;25.50;99.90
12655;DHT22;6392;44.644;11.448;2023-09-08T11:36:19;25.70;99.90
12655;DHT22;6392;44.644;11.448;2023-09-08T11:38:50;25.80;99.90
12655;DHT22;6392;44.644;11.448;2023-09-08T11:41:20;25.70;99.90
12655;DHT22;6392;44.644;11.448;2023-09-08T11:43:51;25.60;99.90
12655;DHT22;6392;44.644;11.448;2023-09-08T11:46:21;25.60;99.90
12655;DHT22;6392;44.644;11.448;2023-09-08T11:48:51;25.70;99.90
12655;DHT22;6392;44.644;11.448;2023-09-08T11:51:26;25.70;99.90
12655;DHT22;6392;44.644;11.448;2023-09-08T11:54:02;25.70;99.90
12655;DHT22;6392;44.644;11.448;2023-09-08T11:56:33;25.70;99.90
12655;DHT22;6392;44.644;11.448;2023-09-08T11:59:03;25.80;99.90
12655;DHT22;6392;44.644;11.448;2023-09-08T12:01:31;25.80;99.90
12655;DHT22;6392;44.644;11.448;2023-09-08T12:04:04;25.80;99.90
12655;DHT22;6392;44.644;11.448;2023-09-08T12:06:39;25.70;99.90
12655;DHT22;6392;44.644;11.448;2023-09-08T12:09:11;25.70;99.90
12655;DHT22;6392;44.644;11.448;2023-09-08T12:11:47;25.70;99.90
12655;DHT22;6392;44.644;11.448;2023-09-08T12:14:21;25.70;99.90
12655;DHT22;6392;44.644;11.448;2023-09-08T12:16:54;25.80;99.90
12655;DHT22;6392;44.644;11.448;2023-09-08T12:20:00;25.90;99.90
12655;DHT22;6392;44.644;11.448;2023-09-08T12:22:35;25.90;99.90
12655;DHT22;6392;44.644;11.448;2023-09-08T12:25:08;26.00;99.90
12655;DHT22;6392;44.644;11.448;2023-09-08T12:27:38;26.00;99.90
12655;DHT22;6392;44.644;11.448;2023-09-08T12:30:08;26.10;99.90
12655;DHT22;6392;44.644;11.448;2023-09-08T12:32:39;26.20;99.90
12655;DHT22;6392;44.644;11.448;2023-09-08T12:35:20;26.10;99.90
12655;DHT22;6392;44.644;11.448;2023-09-08T12:38:00;26.10;99.90
12655;DHT22;6392;44.644;11.448;2023-09-08T12:40:32;26.10;99.90
12655;DHT22;6392;44.644;11.448;2023-09-08T12:42:59;26.20;99.90
12655;DHT22;6392;44.644;11.448;2023-09-08T12:45:27;26.30;99.90
12655;DHT22;6392;44.644;11.448;2023-09-08T12:47:57;26.40;99.90
12655;DHT22;6392;44.644;11.448;2023-09-08T12:50:24;26.50;99.90
12655;DHT22;6392;44.644;11.448;2023-09-08T12:52:51;26.60;99.90
12655;DHT22;6392;44.644;11.448;2023-09-08T12:55:19;26.60;99.90
12655;DHT22;6392;44.644;11.448;2023-09-08T12:57:47;26.60;99.90
12655;DHT22;6392;44.644;11.448;2023-09-08T13:00:16;26.60;99.90
12655;DHT22;6392;44.644;11.448;2023-09-08T13:02:44;26.70;99.90
12655;DHT22;6392;44.644;11.448;2023-09-08T13:05:11;26.70;99.90
12655;DHT22;6392;44.644;11.448;2023-09-08T13:07:38;26.80;99.90
12655;DHT22;6392;44.644;11.448;2023-09-08T13:10:06;26.80;99.90
12655;DHT22;6392;44.644;11.448;2023-09-08T13:12:34;26.80;99.90
12655;DHT22;6392;44.644;11.448;2023-09-08T13:15:06;26.90;99.90
12655;DHT22;6392;44.644;11.448;2023-09-08T13:17:33;26.80;99.90
12655;DHT22;6392;44.644;11.448;2023-09-08T13:20:00;26.80;99.90
12655;DHT22;6392;44.644;11.448;2023-09-08T13:22:28;27.00;99.90
12655;DHT22;6392;44.644;11.448;2023-09-08T13:24:55;27.20;99.90
12655;DHT22;6392;44.644;11.448;2023-09-08T13:27:22;27.30;99.90
12655;DHT22;6392;44.644;11.448;2023-09-08T13:29:49;27.50;99.90
12655;DHT22;6392;44.644;11.448;2023-09-08T13:32:17;27.50;99.90
12655;DHT22;6392;44.644;11.448;2023-09-08T13:34:44;27.50;99.90
12655;DHT22;6392;44.644;11.448;2023-09-08T13:37:13;27.50;99.90
12655;DHT22;6392;44.644;11.448;2023-09-08T13:39:40;27.60;99.90
12655;DHT22;6392;44.644;11.448;2023-09-08T13:42:09;27.60;99.90
12655;DHT22;6392;44.644;11.448;2023-09-08T13:44:37;27.70;99.90
12655;DHT22;6392;44.644;11.448;2023-09-08T13:47:07;27.60;99.90
12655;DHT22;6392;44.644;11.448;2023-09-08T13:49:51;27.50;99.90
12655;DHT22;6392;44.644;11.448;2023-09-08T13:52:30;27.50;99.90
12655;DHT22;6392;44.644;11.448;2023-09-08T13:54:59;27.60;99.90
12655;DHT22;6392;44.644;11.448;2023-09-08T13:57:35;27.80;99.90
12655;DHT22;6392;44.644;11.448;2023-09-08T14:00:05;28.00;99.90
12655;DHT22;6392;44.644;11.448;2023-09-08T14:02:34;28.20;99.90
12655;DHT22;6392;44.644;11.448;2023-09-08T14:05:09;28.30;99.90
12655;DHT22;6392;44.644;11.448;2023-09-08T14:07:38;28.30;99.90
12655;DHT22;6392;44.644;11.448;2023-09-08T14:10:11;28.20;99.90
12655;DHT22;6392;44.644;11.448;2023-09-08T14:12:52;28.10;99.90
12655;DHT22;6392;44.644;11.448;2023-09-08T14:15:24;28.10;99.90
12655;DHT22;6392;44.644;11.448;2023-09-08T14:17:52;28.40;99.90
12655;DHT22;6392;44.644;11.448;2023-09-08T14:20:22;28.70;99.90
12655;DHT22;6392;44.644;11.448;2023-09-08T14:22:52;28.80;99.90
12655;DHT22;6392;44.644;11.448;2023-09-08T14:25:26;28.80;99.90
12655;DHT22;6392;44.644;11.448;2023-09-08T14:27:56;29.00;99.90
12655;DHT22;6392;44.644;11.448;2023-09-08T14:30:26;29.30;99.90
12655;DHT22;6392;44.644;11.448;2023-09-08T14:33:00;29.40;99.90
12655;DHT22;6392;44.644;11.448;2023-09-08T14:35:34;29.00;99.90
12655;DHT22;6392;44.644;11.448;2023-09-08T14:38:06;28.60;99.90
12655;DHT22;6392;44.644;11.448;2023-09-08T14:40:41;28.50;99.90
12655;DHT22;6392;44.644;11.448;2023-09-08T14:43:17;28.40;99.90
12655;DHT22;6392;44.644;11.448;2023-09-08T14:45:59;28.20;99.90
12655;DHT22;6392;44.644;11.448;2023-09-08T14:48:30;28.30;99.90
12655;DHT22;6392;44.644;11.448;2023-09-08T14:51:06;28.40;99.90
12655;DHT22;6392;44.644;11.448;2023-09-08T14:53:41;28.60;99.90
12655;DHT22;6392;44.644;11.448;2023-09-08T14:56:14;28.60;99.90
12655;DHT22;6392;44.644;11.448;2023-09-08T14:58:49;28.60;99.90
12655;DHT22;6392;44.644;11.448;2023-09-08T15:01:23;28.70;99.90
12655;DHT22;6392;44.644;11.448;2023-09-08T15:03:56;28.80;99.90
12655;DHT22;6392;44.644;11.448;2023-09-08T15:06:27;29.00;99.90
12655;DHT22;6392;44.644;11.448;2023-09-08T15:09:03;29.10;99.90
12655;DHT22;6392;44.644;11.448;2023-09-08T15:11:36;28.90;99.90
12655;DHT22;6392;44.644;11.448;2023-09-08T15:14:05;28.70;99.90
12655;DHT22;6392;44.644;11.448;2023-09-08T15:16:35;28.90;99.90
12655;DHT22;6392;44.644;11.448;2023-09-08T15:19:10;29.10;99.90
12655;DHT22;6392;44.644;11.448;2023-09-08T15:21:39;29.00;99.90
12655;DHT22;6392;44.644;11.448;2023-09-08T15:24:06;28.80;99.90
12655;DHT22;6392;44.644;11.448;2023-09-08T15:26:33;28.70;99.90
12655;DHT22;6392;44.644;11.448;2023-09-08T15:29:00;28.60;99.90
12655;DHT22;6392;44.644;11.448;2023-09-08T15:31:28;28.50;99.90
12655;DHT22;6392;44.644;11.448;2023-09-08T15:33:55;28.50;99.90
12655;DHT22;6392;44.644;11.448;2023-09-08T15:36:22;28.50;99.90
12655;DHT22;6392;44.644;11.448;2023-09-08T15:38:50;28.50;99.90
12655;DHT22;6392;44.644;11.448;2023-09-08T15:41:17;28.60;99.90
12655;DHT22;6392;44.644;11.448;2023-09-08T15:43:47;28.70;99.90